Latest Weather Observations for Wilsons Promontory

IDV60801

Issued at 12:31 am EST Saturday 23 May 2015 (issued every 30 minutes, with the page automatically refreshed every 10 minutes)

About weather observations | Map of weather stations | Latest weather observations for VIC | Other Formats
Station Details ID: 085096 Name: WILSONS PROMONTORY LIGHTHOUSE Lat: -39.13 Lon: 146.42 Height: 95.0 m
Data from the previous 72 hours. | See also: Recent months at Wilsons Promontory
Date/Time
EST
Temp
°C
App
Temp
°C
Dew
Point
Rel
Hum
%
Delta-T
°C
Wind Press
QNH
hPa
Press
MSL
hPa
Rain
since 9 am
mm
Dir
 
Spd
km/h
Gust
km/h
Spd
kts
Gust
kts
23/12:30am 11.0 2.2 8.0 82 1.5 WSW 44 61 24 33 1029.1 - 0.0
23/12:18am 11.1 2.9 8.1 82 1.5 WSW 41 59 22 32 1029.1 - 0.0
23/12:00am 11.0 2.2 7.9 81 1.5 W 44 56 24 30 1029.1 1029.1 0.0
 
Date/Time
EST
Temp
°C
App
Temp
°C
Dew
Point
Rel
Hum
%
Delta-T
°C
Wind Press
QNH
hPa
Press
MSL
hPa
Rain
since 9 am
mm
Dir
 
Spd
km/h
Gust
km/h
Spd
kts
Gust
kts
22/11:38pm 11.2 2.4 8.2 82 1.5 W 44 63 24 34 1029.2 - 0.0
22/11:30pm 11.1 0.0 8.0 81 1.5 WSW 56 67 30 36 1028.8 - 0.0
22/11:00pm 10.9 1.7 7.8 81 1.5 WSW 46 67 25 36 1028.8 - 0.0
22/10:57pm 10.9 2.6 7.8 81 1.5 W 41 67 22 36 1028.9 - 0.0
22/10:46pm 10.9 3.0 7.8 81 1.5 W 39 65 21 35 1029.3 - 0.0
22/10:38pm 11.0 -0.7 7.9 81 1.5 SW 59 65 32 35 1028.8 - 0.0
22/10:30pm 11.0 2.7 7.9 81 1.5 WSW 41 57 22 31 1029.1 - 0.0
22/10:23pm 11.3 3.9 8.2 81 1.5 W 37 57 20 31 1029.1 - 0.0
22/10:15pm 11.0 2.6 7.5 79 1.7 W 41 63 22 34 1029.2 - 0.0
22/10:00pm 11.1 0.0 7.8 80 1.6 SW 56 65 30 35 1028.7 - 0.0
22/09:36pm 11.2 2.9 7.7 79 1.7 WSW 41 59 22 32 1029.0 - 0.0
22/09:30pm 11.2 2.5 7.7 79 1.7 WSW 43 57 23 31 1029.2 - 0.0
22/09:02pm 11.3 2.6 7.8 79 1.7 WSW 43 67 23 36 1028.9 - 0.0
22/09:00pm 11.4 3.1 7.9 79 1.7 WSW 41 56 22 30 1029.3 1029.3 0.0
22/08:30pm 11.3 0.5 7.6 78 1.8 SW 54 61 29 33 1028.9 - 0.0
22/08:00pm 11.4 3.5 7.7 78 1.8 WSW 39 50 21 27 1029.0 - 0.0
22/07:30pm 11.3 2.0 7.4 77 1.9 WSW 46 57 25 31 1028.4 - 0.0
22/07:10pm 11.2 0.0 7.5 78 1.8 SW 56 61 30 33 1028.0 - 0.0
22/07:05pm 11.4 3.9 7.9 79 1.7 W 37 56 20 30 1028.4 - 0.0
22/07:00pm 11.4 3.1 7.7 78 1.8 WSW 41 54 22 29 1028.4 - 0.0
22/06:55pm 11.3 3.0 7.6 78 1.8 WSW 41 54 22 29 1028.2 - 0.0
22/06:30pm 11.0 0.4 6.9 76 2.0 SW 52 63 28 34 1028.2 - 0.0
22/06:28pm 10.9 -0.1 6.8 76 1.9 SW 54 63 29 34 1028.3 - 0.0
22/06:06pm 11.0 4.1 7.3 78 1.8 W 33 54 18 29 1028.2 - 0.0
22/06:00pm 11.0 4.1 7.1 77 1.9 W 33 46 18 25 1028.5 1028.5 0.0
22/05:53pm 10.8 2.2 6.7 76 1.9 WSW 41 59 22 32 1028.4 - 0.0
22/05:30pm 10.9 0.7 6.8 76 1.9 WSW 50 63 27 34 1028.0 - 0.0
22/05:00pm 11.1 -0.2 7.0 76 2.0 WSW 56 65 30 35 1027.8 - 0.0
22/04:30pm 10.9 1.5 7.0 77 1.9 WSW 46 57 25 31 1027.9 - 0.0
22/04:00pm 11.1 1.4 7.6 79 1.7 SW 48 57 26 31 1027.9 - 0.0
22/03:30pm 11.2 1.5 7.5 78 1.8 SW 48 56 26 30 1027.8 - 0.0
22/03:00pm 11.5 2.3 8.0 79 1.7 SW 46 54 25 29 1027.7 1027.7 0.0
22/02:30pm 11.6 3.5 8.6 82 1.5 SW 41 50 22 27 1027.4 - 0.0
22/02:00pm 11.9 4.0 9.3 84 1.3 SW 41 54 22 29 1027.2 - 0.0
22/01:39pm 12.3 5.6 9.7 84 1.3 SW 35 54 19 29 1027.2 - 0.0
22/01:30pm 12.4 8.1 9.4 82 1.5 SSW 22 50 12 27 1027.1 - 0.0
22/01:00pm 12.6 10.0 9.4 81 1.6 NNE 13 26 7 14 1027.2 - 0.0
22/12:30pm 13.0 7.5 9.3 78 1.9 WSW 28 39 15 21 1027.6 - 0.0
22/12:00pm 13.0 7.0 10.0 82 1.5 WSW 32 41 17 22 1027.7 1027.7 0.0
22/11:30am 12.7 5.2 9.3 80 1.7 WSW 39 44 21 24 1028.0 - 0.0
22/11:12am 13.3 5.7 9.2 76 2.1 SW 39 43 21 23 1028.2 - 0.0
22/11:00am 13.6 10.0 6.9 64 3.3 WSW 15 20 8 11 1028.6 - 0.0
22/10:30am 13.5 9.5 6.6 63 3.3 SW 17 20 9 11 1028.8 - 0.0
22/10:00am 13.5 11.5 6.4 62 3.4 W 6 11 3 6 1028.6 - 0.0
22/09:30am 13.4 10.5 6.3 62 3.4 SSW 11 17 6 9 1028.6 - 0.0
22/09:00am 13.1 10.6 6.5 64 3.1 SSW 9 19 5 10 1028.6 1028.6 1.4
22/08:30am 13.0 10.3 5.4 60 3.6 SSW 9 15 5 8 1028.4 - 1.4
22/08:00am 12.8 9.6 5.0 59 3.6 SSW 11 19 6 10 1028.3 - 1.4
22/07:30am 12.9 9.6 4.8 58 3.7 W 11 24 6 13 1027.9 - 1.4
22/07:00am 12.6 9.3 6.6 67 2.9 S 13 19 7 10 1027.7 - 1.4
22/06:30am 12.6 8.4 7.3 70 2.6 SSE 19 22 10 12 1027.4 - 1.4
22/06:00am 12.6 9.5 7.3 70 2.6 SSW 13 24 7 13 1027.1 1027.1 1.4
22/05:30am 12.6 8.1 7.1 69 2.7 S 20 30 11 16 1026.7 - 1.4
22/05:00am 12.6 8.5 6.4 66 3.0 SE 17 28 9 15 1026.8 - 1.4
22/04:30am 12.6 8.2 6.4 66 3.0 ESE 19 24 10 13 1026.8 - 1.4
22/04:00am 12.6 7.9 6.0 64 3.1 ESE 20 28 11 15 1026.6 - 1.4
22/03:30am 12.6 8.2 6.4 66 3.0 ESE 19 26 10 14 1026.6 - 1.4
22/03:00am 12.5 8.1 6.5 67 2.9 E 19 22 10 12 1026.7 1026.8 1.4
22/02:30am 12.5 8.0 6.1 65 3.0 E 19 24 10 13 1026.6 - 1.4
22/02:00am 12.5 8.0 6.8 68 2.7 E 20 24 11 13 1026.6 - 1.4
22/01:30am 12.6 7.8 7.5 71 2.5 ESE 22 32 12 17 1026.6 - 1.4
22/01:00am 12.3 8.1 7.6 73 2.3 E 19 24 10 13 1026.7 - 1.4
22/12:30am 12.2 7.9 7.7 74 2.2 ESE 20 26 11 14 1026.8 - 1.4
22/12:00am 12.2 6.9 8.3 77 1.9 ESE 26 32 14 17 1026.6 1026.7 1.4
 
Date/Time
EST
Temp
°C
App
Temp
°C
Dew
Point
Rel
Hum
%
Delta-T
°C
Wind Press
QNH
hPa
Press
MSL
hPa
Rain
since 9 am
mm
Dir
 
Spd
km/h
Gust
km/h
Spd
kts
Gust
kts
21/11:30pm 12.4 7.5 8.3 76 2.0 ESE 24 32 13 17 1026.6 - 1.4
21/11:00pm 12.4 7.6 8.9 79 1.8 E 24 30 13 16 1026.6 - 1.4
21/10:30pm 12.4 8.2 9.6 83 1.4 E 22 30 12 16 1026.7 - 1.4
21/10:00pm 12.6 6.8 9.6 82 1.5 ESE 30 35 16 19 1026.6 - 1.4
21/09:30pm 12.7 7.0 9.7 82 1.5 ESE 30 35 16 19 1026.5 - 1.4
21/09:00pm 12.7 7.4 9.7 82 1.5 ESE 28 33 15 18 1026.3 1026.4 1.4
21/08:30pm 12.9 7.6 9.7 81 1.6 ESE 28 33 15 18 1026.0 - 1.4
21/08:00pm 12.9 7.7 10.1 83 1.4 ESE 28 35 15 19 1025.7 - 1.4
21/07:30pm 13.0 8.2 10.4 84 1.4 E 26 33 14 18 1025.4 - 1.4
21/07:00pm 13.2 8.8 10.4 83 1.5 E 24 30 13 16 1025.2 - 1.4
21/06:30pm 13.1 8.9 9.9 81 1.7 E 22 28 12 15 1024.8 - 1.4
21/06:00pm 13.1 7.9 10.3 83 1.4 E 28 35 15 19 1024.5 1024.5 1.4
21/05:30pm 13.1 7.6 10.5 84 1.4 E 30 35 16 19 1024.2 - 1.4
21/05:00pm 13.1 7.6 10.5 84 1.4 E 30 35 16 19 1023.9 - 1.4
21/04:30pm 13.1 6.7 10.6 85 1.3 E 35 41 19 22 1023.6 - 1.4
21/04:00pm 13.1 6.8 11.0 87 1.1 E 35 43 19 23 1023.2 - 1.4
21/03:30pm 13.1 6.5 11.2 88 1.0 E 37 43 20 23 1022.9 - 1.4
21/03:00pm 13.0 5.5 10.9 87 1.1 E 41 48 22 26 1022.6 1022.6 1.4
21/02:30pm 13.0 5.6 11.1 88 1.0 E 41 46 22 25 1022.2 - 1.4
21/02:00pm 12.9 5.1 11.0 88 1.0 E 43 52 23 28 1022.1 - 1.4
21/01:30pm 13.0 5.3 11.6 91 0.7 E 43 48 23 26 1021.9 - 1.4
21/01:00pm 13.0 5.2 11.9 93 0.6 E 44 50 24 27 1021.9 - 1.4
21/12:30pm 12.9 4.9 12.4 97 0.3 E 46 54 25 29 1021.8 - 1.4
21/12:00pm 13.3 5.5 13.1 99 0.1 E 46 54 25 29 1021.7 1021.7 1.4
21/11:30am 13.4 5.4 13.4 100 0.0 E 48 56 26 30 1021.6 - 1.4
21/11:00am 13.7 5.4 13.7 100 0.0 E 50 57 27 31 1021.4 - 1.4
21/10:30am 13.4 5.0 13.4 100 0.0 E 50 59 27 32 1021.0 - 1.4
21/10:00am 13.4 5.0 13.4 100 0.0 E 50 61 27 33 1020.6 - 1.4
21/09:30am 13.3 4.5 13.3 100 0.0 E 52 63 28 34 1020.1 - 1.2
21/09:06am 13.6 6.4 13.6 100 0.0 ESE 44 52 24 28 1019.8 - 0.2
21/09:00am 13.1 8.4 13.1 100 0.0 WSW 30 43 16 23 1020.0 1020.0 3.4
21/08:30am 12.4 5.0 12.4 100 0.0 WSW 43 50 23 27 1019.7 - 0.8
21/08:00am 12.6 5.2 12.6 100 0.0 WSW 43 50 23 27 1019.4 - 0.2
21/07:30am 12.4 5.0 12.4 100 0.0 SW 43 50 23 27 1019.2 - 0.0
21/07:00am 12.7 9.3 12.4 98 0.2 SSW 22 35 12 19 1018.7 - 0.0
21/06:30am 12.4 9.2 11.9 97 0.3 WNW 20 35 11 19 1018.3 - 0.0
21/06:18am 12.4 7.0 12.1 98 0.2 SW 32 50 17 27 1018.3 - 0.0
21/06:00am 12.4 6.4 12.1 98 0.2 SW 35 52 19 28 1018.3 1018.3 0.0
21/05:53am 12.3 7.2 12.0 98 0.2 SW 30 48 16 26 1018.1 - 0.0
21/05:30am 12.4 5.3 12.2 99 0.1 SW 41 50 22 27 1017.9 - 0.0
21/05:00am 12.3 6.3 12.1 99 0.1 SW 35 44 19 24 1017.7 - 0.0
21/04:48am 12.2 9.1 12.2 100 0.0 W 20 48 11 26 1017.4 - 0.0
21/04:30am 12.2 5.5 12.2 100 0.0 SW 39 52 21 28 1017.2 - 0.0
21/04:00am 12.2 5.9 12.2 100 0.0 SW 37 52 20 28 1017.1 - 0.0
21/03:42am 12.3 6.9 12.3 100 0.0 SW 32 50 17 27 1016.8 - 0.0
21/03:30am 12.4 5.7 12.4 100 0.0 SW 39 52 21 28 1016.7 - 0.0
21/03:00am 12.8 5.9 12.8 100 0.0 SW 41 48 22 26 1016.6 1016.6 0.0
21/02:30am 13.0 9.4 13.0 100 0.0 SW 24 39 13 21 1016.6 - 0.0
21/02:00am 13.2 9.6 13.2 100 0.0 SW 24 33 13 18 1016.5 - 0.0
21/01:30am 13.0 6.5 13.0 100 0.0 SW 39 44 21 24 1016.1 - 0.0
21/01:00am 13.0 7.9 13.0 100 0.0 SW 32 46 17 25 1015.7 - 0.0
21/12:49am 13.2 7.6 13.2 100 0.0 SW 35 54 19 29 1015.6 - 0.0
21/12:45am 13.2 6.7 13.0 99 0.1 SW 39 54 21 29 1015.6 - 0.0
21/12:30am 13.6 11.1 13.4 99 0.1 SW 19 35 10 19 1015.9 - 0.0
21/12:00am 13.4 7.7 12.9 97 0.3 WSW 35 43 19 23 1015.6 1015.6 0.0
 
Date/Time
EST
Temp
°C
App
Temp
°C
Dew
Point
Rel
Hum
%
Delta-T
°C
Wind Press
QNH
hPa
Press
MSL
hPa
Rain
since 9 am
mm
Dir
 
Spd
km/h
Gust
km/h
Spd
kts
Gust
kts
20/11:39pm 13.7 7.2 12.9 95 0.4 WSW 39 41 21 22 1015.3 - 0.0
20/11:30pm 13.5 9.8 12.6 94 0.5 W 24 33 13 18 1015.5 - 0.0
20/11:00pm 13.1 9.1 11.8 92 0.7 WNW 24 37 13 20 1015.2 - 0.0
20/10:30pm 13.1 10.0 11.7 91 0.7 NW 19 32 10 17 1015.2 - 0.0
20/10:00pm 13.3 9.2 11.5 89 1.0 WNW 24 35 13 19 1015.0 - 0.0
20/09:30pm 13.2 9.0 11.1 87 1.1 WNW 24 37 13 20 1014.8 - 0.0
20/09:00pm 13.6 7.6 10.8 83 1.5 NW 33 46 18 25 1014.2 1014.2 0.0
20/08:47pm 13.8 5.7 10.8 82 1.6 NW 44 56 24 30 1013.8 - 0.0
20/08:32pm 14.2 8.4 10.8 80 1.8 W 32 50 17 27 1013.9 - 0.0
20/08:30pm 14.2 8.2 10.8 80 1.8 W 33 50 18 27 1013.8 - 0.0
20/08:20pm 14.3 9.3 10.9 80 1.8 W 28 50 15 27 1013.7 - 0.0
20/08:00pm 14.4 9.8 11.0 80 1.8 W 26 35 14 19 1013.8 - 0.0
20/07:30pm 14.5 11.3 11.3 81 1.7 W 19 30 10 16 1013.7 - 0.0
20/07:00pm 14.6 13.0 11.4 81 1.7 W 11 17 6 9 1013.4 - 0.0
20/06:30pm 14.7 10.9 11.1 79 1.9 W 22 30 12 16 1012.9 - 0.0
20/06:00pm 14.7 11.2 10.9 78 2.0 W 20 32 11 17 1012.4 1012.4 0.0
20/05:30pm 14.7 11.3 10.7 77 2.1 W 19 28 10 15 1011.9 - 0.0
20/05:00pm 14.8 12.2 10.6 76 2.2 NW 15 35 8 19 1011.3 - 0.0
20/04:30pm 14.9 12.2 10.5 75 2.3 WNW 15 32 8 17 1011.2 - 0.0
20/04:00pm 14.8 11.4 10.6 76 2.2 WSW 19 35 10 19 1010.7 - 0.0
20/03:30pm 14.7 8.8 10.3 75 2.3 W 32 54 17 29 1010.1 - 0.0
20/03:00pm 14.7 7.9 10.5 76 2.2 W 37 57 20 31 1009.9 1009.9 0.0
20/02:30pm 14.9 7.9 10.1 73 2.5 W 37 57 20 31 1009.6 - 0.0
20/02:00pm 15.3 8.6 11.1 76 2.3 W 37 57 20 31 1009.5 - 0.0
20/01:45pm 15.7 10.9 11.7 77 2.2 W 28 48 15 26 1009.5 - 0.0
20/01:30pm 15.5 11.8 11.5 77 2.2 W 22 48 12 26 1009.5 - 0.0
20/01:00pm 15.4 12.2 11.4 77 2.2 W 19 33 10 18 1009.4 - 0.0
20/12:30pm 15.8 10.5 11.4 75 2.4 WNW 30 54 16 29 1009.3 - 0.0
20/12:09pm 16.0 11.2 11.8 76 2.3 WNW 28 50 15 27 1009.2 - 0.0
20/12:00pm 15.9 11.9 11.9 77 2.2 W 24 41 13 22 1009.5 1009.5 0.0
20/11:40am 15.8 11.0 11.8 77 2.2 WNW 28 48 15 26 1009.4 - 0.0
20/11:30am 15.8 12.2 12.0 78 2.1 WNW 22 43 12 23 1009.8 - 0.0
20/11:00am 15.7 13.9 12.1 79 2.0 W 13 28 7 15 1010.0 - 0.0
20/10:30am 15.9 13.7 12.1 78 2.1 WNW 15 33 8 18 1009.8 - 0.0
20/10:00am 15.8 13.6 12.0 78 2.1 NNW 15 28 8 15 1009.6 - 0.0
20/09:30am 15.7 13.1 11.9 78 2.1 NW 17 37 9 20 1009.4 - 0.0
20/09:00am 15.9 12.7 11.9 77 2.2 NW 20 41 11 22 1009.2 1009.2 2.0
20/08:30am 15.9 12.6 11.7 76 2.3 NW 20 46 11 25 1008.9 - 2.0
20/08:00am 16.1 13.5 11.9 76 2.3 NNW 17 39 9 21 1008.7 - 2.0
20/07:30am 16.1 13.4 11.7 75 2.4 N 17 35 9 19 1008.1 - 2.0
20/07:00am 16.0 11.9 11.4 74 2.5 N 24 41 13 22 1007.7 - 2.0
20/06:30am 15.8 12.0 11.2 74 2.5 N 22 43 12 23 1007.4 - 2.0
20/06:00am 15.4 12.0 11.2 76 2.3 N 20 41 11 22 1007.3 1007.3 2.0
20/05:30am 14.0 10.9 10.4 79 1.9 NNE 17 20 9 11 1007.2 - 2.0
20/05:00am 15.3 10.6 10.7 74 2.4 NNW 26 33 14 18 1007.3 - 2.0
20/04:30am 14.2 9.8 10.4 78 2.0 NNW 24 41 13 22 1007.1 - 2.0
20/04:04am 15.4 10.1 10.0 70 2.8 NNW 28 46 15 25 1007.3 - 1.4
20/04:00am 15.5 10.3 10.1 70 2.8 NNW 28 41 15 22 1007.3 - 1.4
20/03:30am 15.5 11.3 9.6 68 3.1 NNW 22 43 12 23 1007.3 - 1.4
20/03:00am 15.5 10.2 9.8 69 3.0 NNW 28 44 15 24 1007.5 1007.5 1.4
20/02:55am 15.5 10.2 9.8 69 3.0 NNW 28 46 15 25 1007.5 - 1.4
20/02:30am 15.4 12.1 9.7 69 3.0 NNW 17 33 9 18 1007.8 - 1.4
20/02:00am 15.3 11.7 9.9 70 2.8 NW 19 37 10 20 1007.8 - 1.4
20/01:30am 14.9 11.2 10.1 73 2.5 NW 20 33 11 18 1007.7 - 1.4
20/01:00am 14.8 9.3 10.4 75 2.3 NW 30 46 16 25 1007.7 - 1.4

Other Formats:

Comma delimited format used in spreadsheet applications
http://www.bom.gov.au/fwo/IDV60801/IDV60801.94893.axf

JavaScript Object Notation format (JSON) in row-major order
http://www.bom.gov.au/fwo/IDV60801/IDV60801.94893.json